This is the latest recevied weather packets stored in our database for station/object BMCB-2. If no packets are shown the sender has not sent any weather packets the latest 10 day(s).
| Time | Temp. | Humidity | Pressure | Rain* | Wind** | Luminosity | Snow |
|---|---|---|---|---|---|---|---|
| 1777718457 | 20.56° C | 61% | 1019.6 hPa | 0 mm | - | 548 W/m² | - |
| 1777716658 | 20.56° C | 66% | 1019.8 hPa | 0 mm | - | 348 W/m² | - |
| 1777713057 | 18.89° C | 70% | 1020.3 hPa | 0 mm | - | 570 W/m² | - |
| 1777712457 | 18.33° C | 72% | 1020.4 hPa | 0 mm | - | 376 W/m² | - |
| 1777711857 | 18.33° C | 72% | 1020.4 hPa | 0 mm | - | 406 W/m² | - |
| 1777708259 | 17.22° C | 74% | 1020.7 hPa | 0 mm | - | 408 W/m² | - |
| 1777704656 | 14.44° C | 85% | 1021.5 hPa | 0 mm | - | 214 W/m² | - |
| 1777702255 | 12.78° C | 90% | 1021.7 hPa | 0 mm | - | 100 W/m² | - |
| 1777701656 | 12.78° C | 89% | 1021.7 hPa | 0 mm | - | 114 W/m² | - |
| 1777701057 | 12.22° C | 90% | 1021.8 hPa | 0 mm | - | 98 W/m² | - |
| 1777699857 | 11.67° C | 89% | 1021.8 hPa | 0 mm | - | 44 W/m² | - |
| 1777698652 | 11.11° C | 88% | 1021.7 hPa | 0.25 mm | - | 38 W/m² | - |
| 1777691454 | 12.78° C | 66% | 1021.8 hPa | 0 mm | - | 0 W/m² | - |
| 1777686057 | 8.33° C | 79% | 1022.4 hPa | 0 mm | - | 0 W/m² | - |
| 1777680657 | 8.89° C | 73% | 1022.7 hPa | 0 mm | - | 0 W/m² | - |
| 1777678265 | 8.89° C | 72% | 1023 hPa | 0 mm | - | 0 W/m² | - |
| 1777674666 | 8.89° C | 72% | 1023.4 hPa | 0 mm | - | 0 W/m² | - |
| 1777671069 | 10° C | 69% | 1023.5 hPa | 0 mm | - | 0 W/m² | - |
| 1777669270 | 10.56° C | 65% | 1023.6 hPa | 0 mm | - | 0 W/m² | - |
| 1777663871 | 13.89° C | 50% | 1023.1 hPa | 0 mm | - | 0 W/m² | - |
| 1777660866 | 17.78° C | 38% | 1022.4 hPa | 0 mm | - | 14 W/m² | - |
| 1777657868 | 20° C | 34% | 1021.8 hPa | 0 mm | - | 110 W/m² | - |
| 1777649463 | 22.78° C | 25% | 1021.9 hPa | 0 mm | - | 450 W/m² | - |
| 1777647661 | 22.22° C | 28% | 1022.1 hPa | 0 mm | - | 516 W/m² | - |
| 1777632057 | 18.89° C | 31% | 1024.4 hPa | 0 mm | - | 714 W/m² | - |
* Rain latest hour (hover to see other rain measurements)
** Current wind speed in m/s (hover to see current wind gust speed)